Time;durP1;ratioP1;P1;durP2;ratioP2;P2;SDS_P1;SDS_P2;PMS_P1;PMS_P2;Temp;Humidity;BMP_temperature;BMP_pressure;BME280_temperature;BME280_humidity;BME280_pressure;Samples;Min_cycle;Max_cycle;Signal;HPM_P1;HPM_P2
2021/07/21 00:01:08;;;;;;;18.47;16.80;;;16.80;99.90;;;;;;5113189;28;20457;-76
2021/07/21 00:03:35;;;;;;;17.90;16.53;;;16.80;99.90;;;;;;5113315;28;20499;-75
2021/07/21 00:06:02;;;;;;;17.50;16.30;;;16.80;99.90;;;;;;5113287;28;20864;-75
2021/07/21 00:08:29;;;;;;;18.63;17.23;;;16.80;99.90;;;;;;5113274;28;20453;-75
2021/07/21 00:13:37;;;;;;;18.37;17.07;;;16.50;99.90;;;;;;5112046;28;20996;-73
2021/07/21 00:16:12;;;;;;;18.17;16.90;;;16.40;99.90;;;;;;5113141;28;20503;-74
2021/07/21 00:18:47;;;;;;;18.60;16.90;;;16.20;99.90;;;;;;5112960;28;20441;-76
2021/07/21 00:21:16;;;;;;;20.63;18.87;;;16.30;99.90;;;;;;5113083;28;20491;-76
2021/07/21 00:23:43;;;;;;;18.40;16.90;;;16.10;99.90;;;;;;5112805;28;20441;-75
2021/07/21 00:26:10;;;;;;;18.80;17.40;;;16.00;99.90;;;;;;5112579;28;20841;-75
2021/07/21 00:28:39;;;;;;;18.60;17.13;;;15.90;99.90;;;;;;5112654;28;20475;-75
2021/07/21 00:31:07;;;;;;;19.60;18.20;;;15.90;99.90;;;;;;5112642;28;20449;-75
2021/07/21 00:33:34;;;;;;;19.50;17.87;;;15.90;99.90;;;;;;5112706;28;20523;-76
2021/07/21 00:36:01;;;;;;;17.93;16.73;;;15.80;99.90;;;;;;5112437;28;20449;-75
2021/07/21 00:38:27;;;;;;;19.30;17.90;;;15.70;99.90;;;;;;5112620;28;20452;-75
2021/07/21 00:40:54;;;;;;;19.53;18.03;;;15.60;99.90;;;;;;5112626;28;20441;-75
2021/07/21 00:43:21;;;;;;;19.67;18.10;;;15.60;99.90;;;;;;5112185;28;20446;-75
2021/07/21 00:45:47;;;;;;;19.00;17.60;;;15.60;99.90;;;;;;5112488;28;20449;-76
2021/07/21 00:48:15;;;;;;;18.37;17.13;;;15.50;99.90;;;;;;5112145;28;20969;-76
2021/07/21 00:50:42;;;;;;;18.90;17.30;;;15.50;99.90;;;;;;5112467;28;20456;-75
2021/07/21 00:53:09;;;;;;;19.60;18.00;;;15.50;99.90;;;;;;5112093;28;20485;-76
2021/07/21 00:55:36;;;;;;;19.00;17.47;;;15.40;99.90;;;;;;5111464;28;20453;-74
2021/07/21 00:58:03;;;;;;;21.50;19.50;;;15.30;99.90;;;;;;5112100;28;20445;-74
2021/07/21 01:00:30;;;;;;;21.47;19.87;;;15.40;99.90;;;;;;5112202;28;20448;-75
2021/07/21 01:02:56;;;;;;;18.53;17.13;;;15.30;99.90;;;;;;5112202;28;20453;-75
2021/07/21 01:05:27;;;;;;;18.67;17.27;;;15.40;99.90;;;;;;5112041;28;20498;-75
2021/07/21 01:07:55;;;;;;;20.77;19.17;;;15.30;99.90;;;;;;5112119;28;20437;-75
2021/07/21 01:10:23;;;;;;;19.90;18.20;;;15.30;99.90;;;;;;5111767;28;20486;-75
2021/07/21 01:12:56;;;;;;;18.97;17.67;;;15.30;99.90;;;;;;5111759;28;20492;-75
2021/07/21 01:15:27;;;;;;;19.40;17.90;;;15.20;99.90;;;;;;5111863;28;20884;-75
2021/07/21 01:17:58;;;;;;;20.30;18.90;;;15.30;99.90;;;;;;5112144;28;20422;-75
2021/07/21 01:20:53;;;;;;;20.07;18.47;;;15.20;99.90;;;;;;5111802;28;20460;-74
2021/07/21 01:23:53;;;;;;;19.27;17.70;;;15.10;99.90;;;;;;5090526;28;20449;-75
2021/07/21 01:26:24;;;;;;;20.70;18.90;;;15.10;99.90;;;;;;5086066;28;20457;-75
2021/07/21 01:28:55;;;;;;;20.30;18.50;;;15.10;99.90;;;;;;5111585;28;20899;-75
2021/07/21 01:31:28;;;;;;;20.90;19.07;;;15.20;99.90;;;;;;5111564;28;20936;-75
2021/07/21 01:33:58;;;;;;;20.40;18.80;;;15.10;99.90;;;;;;5111590;28;20473;-74
2021/07/21 01:36:27;;;;;;;21.87;20.10;;;15.10;99.90;;;;;;5111381;28;20830;-75
2021/07/21 01:38:57;;;;;;;21.10;19.30;;;15.00;99.90;;;;;;5111681;28;20437;-74
2021/07/21 01:41:28;;;;;;;19.93;18.30;;;15.00;99.90;;;;;;5111484;28;21053;-75
2021/07/21 01:44:00;;;;;;;20.50;18.90;;;15.00;99.90;;;;;;5111372;28;20875;-76
2021/07/21 01:46:28;;;;;;;19.23;17.80;;;15.00;99.90;;;;;;5111606;28;20445;-76
2021/07/21 01:48:57;;;;;;;20.70;19.23;;;14.90;99.90;;;;;;5111177;28;20483;-76
2021/07/21 01:51:25;;;;;;;20.57;18.97;;;15.00;99.90;;;;;;5111621;28;20437;-77
2021/07/21 01:53:52;;;;;;;21.70;20.00;;;14.90;99.90;;;;;;5111307;28;20473;-74
2021/07/21 01:56:20;;;;;;;22.50;20.33;;;14.90;99.90;;;;;;5111421;28;20445;-75
2021/07/21 01:58:48;;;;;;;19.13;17.70;;;14.90;99.90;;;;;;5111218;28;20936;-76
2021/07/21 02:01:16;;;;;;;20.93;19.10;;;15.00;99.90;;;;;;5111158;28;20449;-75
2021/07/21 02:03:45;;;;;;;20.37;18.67;;;14.80;99.90;;;;;;5111130;28;20460;-76
2021/07/21 02:06:12;;;;;;;22.00;20.40;;;14.80;99.90;;;;;;5111080;28;20449;-75
2021/07/21 02:08:39;;;;;;;19.43;17.93;;;14.80;99.90;;;;;;5115500;28;20445;-75
2021/07/21 02:11:07;;;;;;;21.70;20.00;;;14.80;99.90;;;;;;5115499;28;20457;-76
2021/07/21 02:13:35;;;;;;;20.10;18.60;;;14.80;99.90;;;;;;5115383;28;20495;-75
2021/07/21 02:16:04;;;;;;;21.67;19.97;;;14.80;99.90;;;;;;5115370;28;20452;-75
2021/07/21 02:18:33;;;;;;;21.43;19.40;;;14.80;99.90;;;;;;5115254;28;20445;-75
2021/07/21 02:21:03;;;;;;;22.77;20.97;;;14.80;99.90;;;;;;5115320;28;20456;-75
2021/07/21 02:23:30;;;;;;;21.27;19.57;;;14.80;99.90;;;;;;5115341;28;20441;-72
2021/07/21 02:25:59;;;;;;;19.83;18.40;;;14.90;99.90;;;;;;5114767;28;20441;-72
2021/07/21 02:28:26;;;;;;;19.33;17.93;;;14.90;99.90;;;;;;5115367;28;20544;-72
2021/07/21 02:30:55;;;;;;;21.13;19.53;;;14.90;99.90;;;;;;5115029;28;20445;-73
2021/07/21 02:33:25;;;;;;;20.37;18.47;;;14.90;99.90;;;;;;5114767;28;20472;-72
2021/07/21 02:35:54;;;;;;;20.50;18.90;;;14.80;99.90;;;;;;5114952;28;20448;-73
2021/07/21 02:38:21;;;;;;;21.40;19.83;;;14.80;99.90;;;;;;5114902;28;20449;-72
2021/07/21 02:40:48;;;;;;;21.10;19.50;;;14.80;99.90;;;;;;5115012;28;20861;-71
2021/07/21 02:43:15;;;;;;;22.40;20.47;;;14.70;99.90;;;;;;5114756;28;20444;-71
2021/07/21 02:45:41;;;;;;;24.20;22.23;;;14.50;99.90;;;;;;5114568;28;20955;-71
2021/07/21 02:48:08;;;;;;;22.33;20.23;;;14.50;99.90;;;;;;5114265;28;21009;-71
2021/07/21 02:50:36;;;;;;;24.10;22.20;;;14.50;99.90;;;;;;5114806;28;20445;-71
2021/07/21 02:53:09;;;;;;;23.10;21.37;;;14.50;99.90;;;;;;5114590;28;20449;-71
2021/07/21 02:55:40;;;;;;;23.67;21.57;;;14.40;99.90;;;;;;5114451;28;20558;-71
2021/07/21 02:58:13;;;;;;;25.20;23.30;;;14.40;99.90;;;;;;5114350;28;20445;-70
2021/07/21 03:00:41;;;;;;;23.40;21.23;;;14.40;99.90;;;;;;5114330;28;20452;-71
2021/07/21 03:03:10;;;;;;;25.57;23.10;;;14.40;99.90;;;;;;5114218;28;20445;-70
2021/07/21 03:05:39;;;;;;;24.20;22.30;;;14.30;99.90;;;;;;5114435;28;20457;-71
2021/07/21 03:08:07;;;;;;;25.03;22.97;;;14.40;99.90;;;;;;5114242;28;20456;-71
2021/07/21 03:10:35;;;;;;;25.80;23.30;;;14.40;99.90;;;;;;5114295;28;20453;-70
2021/07/21 03:13:04;;;;;;;24.97;22.87;;;14.40;99.90;;;;;;5114032;28;21010;-72
2021/07/21 03:15:33;;;;;;;23.27;21.27;;;14.40;99.90;;;;;;5113927;28;20483;-72
2021/07/21 03:18:02;;;;;;;24.57;22.87;;;14.40;99.90;;;;;;5112864;28;20967;-71
2021/07/21 03:20:30;;;;;;;23.63;21.70;;;14.40;99.90;;;;;;5113929;28;20452;-72
2021/07/21 03:23:01;;;;;;;25.63;23.43;;;14.40;99.90;;;;;;5113912;28;20450;-75
2021/07/21 03:25:29;;;;;;;24.83;22.90;;;14.30;99.90;;;;;;5113862;28;20491;-74
2021/07/21 03:27:56;;;;;;;23.43;21.60;;;14.30;99.90;;;;;;5113676;28;20446;-76
2021/07/21 03:30:25;;;;;;;25.60;23.50;;;14.30;99.90;;;;;;5113805;28;20450;-72
2021/07/21 03:32:53;;;;;;;27.67;25.00;;;14.20;99.90;;;;;;5111896;28;20449;-72
2021/07/21 03:35:24;;;;;;;24.50;22.60;;;14.20;99.90;;;;;;5108908;28;20485;-72
2021/07/21 03:37:51;;;;;;;25.20;23.10;;;14.30;99.90;;;;;;5112584;28;20457;-72
2021/07/21 03:40:19;;;;;;;25.17;22.97;;;14.20;99.90;;;;;;5113464;28;20456;-72
2021/07/21 03:42:50;;;;;;;25.13;23.03;;;14.30;99.90;;;;;;5113564;28;20498;-72
2021/07/21 03:45:16;;;;;;;26.13;23.93;;;14.30;99.90;;;;;;5113406;28;20441;-72
2021/07/21 03:47:44;;;;;;;25.70;23.60;;;14.20;99.90;;;;;;5113264;28;20477;-73
2021/07/21 03:50:11;;;;;;;26.83;24.60;;;14.20;99.90;;;;;;5113386;28;20445;-72
2021/07/21 03:52:44;;;;;;;25.10;23.10;;;14.10;99.90;;;;;;5113458;28;20537;-72
2021/07/21 03:55:13;;;;;;;26.90;24.53;;;14.10;99.90;;;;;;5113185;28;20534;-72
2021/07/21 03:57:39;;;;;;;23.30;21.60;;;14.10;99.90;;;;;;5112966;28;20454;-72
2021/07/21 04:00:11;;;;;;;25.87;23.77;;;14.10;99.90;;;;;;5112857;28;20445;-73
2021/07/21 04:02:38;;;;;;;29.07;26.40;;;14.10;99.90;;;;;;5113155;28;20446;-72
2021/07/21 04:05:07;;;;;;;26.27;23.90;;;14.10;99.90;;;;;;5112986;28;20986;-72
2021/07/21 04:07:36;;;;;;;27.13;24.43;;;14.20;99.90;;;;;;5112960;28;20494;-72
2021/07/21 04:10:06;;;;;;;25.30;23.27;;;14.20;99.90;;;;;;5113045;28;20445;-72
2021/07/21 04:12:33;;;;;;;25.27;23.13;;;14.30;99.90;;;;;;5112845;28;20449;-71
2021/07/21 04:15:01;;;;;;;26.73;24.27;;;14.30;99.90;;;;;;5112582;28;20514;-71
2021/07/21 04:17:31;;;;;;;23.00;21.50;;;14.40;99.90;;;;;;5112758;28;20868;-72
2021/07/21 04:20:00;;;;;;;26.70;24.50;;;14.50;99.90;;;;;;5112904;28;20449;-73
2021/07/21 04:22:28;;;;;;;25.27;23.17;;;14.50;99.90;;;;;;5112757;28;20449;-72
2021/07/21 04:24:57;;;;;;;25.23;23.03;;;14.70;99.90;;;;;;5112835;28;20457;-72
2021/07/21 04:27:25;;;;;;;24.63;22.63;;;14.70;99.90;;;;;;5112839;28;20468;-72
2021/07/21 04:29:53;;;;;;;24.03;22.27;;;14.80;99.90;;;;;;5112313;28;20449;-72
2021/07/21 04:32:22;;;;;;;24.60;22.70;;;14.90;99.90;;;;;;5112649;28;20907;-73
2021/07/21 04:34:51;;;;;;;24.60;22.50;;;14.90;99.90;;;;;;5112453;28;20562;-72
2021/07/21 04:37:20;;;;;;;22.53;20.73;;;14.90;99.90;;;;;;5112532;28;20451;-73
2021/07/21 04:39:47;;;;;;;23.53;21.73;;;14.90;99.90;;;;;;5112558;28;20445;-72
2021/07/21 04:42:14;;;;;;;25.37;23.30;;;15.00;99.90;;;;;;5112435;28;20502;-73
2021/07/21 04:44:42;;;;;;;25.03;22.57;;;15.30;99.90;;;;;;5112331;28;20460;-72
2021/07/21 04:47:09;;;;;;;24.10;22.07;;;15.60;99.90;;;;;;5112166;28;21307;-73
2021/07/21 04:49:39;;;;;;;22.83;21.03;;;16.00;99.90;;;;;;5112338;28;20826;-72
2021/07/21 04:52:09;;;;;;;23.93;21.53;;;16.40;99.90;;;;;;5112284;28;20498;-72
2021/07/21 04:54:36;;;;;;;21.87;20.10;;;16.70;99.90;;;;;;5112221;28;21015;-72
2021/07/21 04:57:03;;;;;;;23.27;21.27;;;17.00;99.90;;;;;;5112069;28;20502;-72
2021/07/21 04:59:30;;;;;;;23.17;21.13;;;17.40;99.90;;;;;;5111993;28;20445;-72
2021/07/21 05:01:57;;;;;;;21.73;20.20;;;17.80;99.90;;;;;;5111983;28;20716;-72
2021/07/21 05:04:23;;;;;;;23.93;21.93;;;18.20;99.90;;;;;;5111985;28;20449;-72
2021/07/21 05:06:50;;;;;;;23.70;21.93;;;18.50;99.90;;;;;;5112015;28;20495;-73
2021/07/21 05:09:18;;;;;;;23.77;21.87;;;18.90;99.90;;;;;;5111933;28;20453;-73
2021/07/21 05:11:45;;;;;;;23.70;21.80;;;19.00;99.90;;;;;;5111740;28;20452;-73
2021/07/21 05:14:11;;;;;;;23.90;21.80;;;19.30;99.90;;;;;;5111627;28;20484;-72
2021/07/21 05:16:38;;;;;;;23.57;21.87;;;19.40;99.90;;;;;;5111999;28;20442;-73
2021/07/21 05:19:05;;;;;;;21.60;19.80;;;19.70;99.90;;;;;;5111755;28;20445;-73
2021/07/21 05:21:32;;;;;;;26.13;24.00;;;20.00;99.90;;;;;;5111656;28;20437;-73
2021/07/21 05:23:59;;;;;;;24.87;23.07;;;20.30;99.90;;;;;;5111555;28;20449;-73
2021/07/21 05:26:27;;;;;;;23.40;21.57;;;20.40;99.90;;;;;;5111631;28;20449;-73
2021/07/21 05:28:54;;;;;;;24.40;22.50;;;20.60;99.90;;;;;;5111601;28;20445;-73
2021/07/21 05:31:21;;;;;;;23.47;21.57;;;20.60;99.90;;;;;;5111517;28;20941;-73
2021/07/21 05:33:47;;;;;;;24.90;22.47;;;20.50;99.90;;;;;;5111278;28;20933;-72
2021/07/21 05:36:14;;;;;;;22.53;20.83;;;20.70;99.90;;;;;;5111428;28;20492;-72
2021/07/21 05:38:41;;;;;;;25.53;23.33;;;20.90;99.90;;;;;;5111422;28;20518;-73
2021/07/21 05:41:09;;;;;;;24.03;22.10;;;21.30;99.90;;;;;;5110888;28;20456;-73
2021/07/21 05:43:37;;;;;;;24.97;23.07;;;21.60;99.90;;;;;;5111424;28;20449;-73
2021/07/21 05:46:05;;;;;;;23.60;21.40;;;21.80;99.90;;;;;;5111289;28;20821;-72
2021/07/21 05:48:31;;;;;;;21.90;20.27;;;22.10;99.90;;;;;;5111101;28;20473;-73
2021/07/21 05:50:58;;;;;;;22.83;20.63;;;22.20;99.90;;;;;;5111427;28;20449;-73
2021/07/21 05:53:25;;;;;;;23.53;21.73;;;22.30;99.90;;;;;;5111316;28;20610;-73
2021/07/21 05:55:51;;;;;;;33.57;21.60;;;22.70;99.90;;;;;;5111212;28;21000;-73
2021/07/21 05:58:19;;;;;;;24.37;22.37;;;22.80;99.90;;;;;;5111197;28;20446;-73
2021/07/21 06:00:47;;;;;;;24.23;22.43;;;23.00;99.90;;;;;;5111215;28;20445;-73
2021/07/21 06:03:15;;;;;;;22.80;21.20;;;23.00;99.90;;;;;;5111289;28;20453;-73
2021/07/21 06:05:41;;;;;;;23.10;21.30;;;23.10;99.90;;;;;;5111306;28;20485;-73
2021/07/21 06:08:08;;;;;;;23.27;21.40;;;23.20;99.90;;;;;;5111207;28;20864;-73
2021/07/21 06:10:35;;;;;;;23.00;21.30;;;23.50;99.90;;;;;;5111050;28;20450;-73
2021/07/21 06:13:02;;;;;;;21.10;19.80;;;23.60;99.90;;;;;;5111078;28;20461;-73
2021/07/21 06:15:30;;;;;;;22.70;20.90;;;23.50;99.90;;;;;;5110772;28;20485;-73
2021/07/21 06:17:58;;;;;;;21.63;19.97;;;23.60;99.60;;;;;;5111126;28;20453;-73
2021/07/21 06:20:25;;;;;;;20.50;19.20;;;23.30;99.90;;;;;;5110938;28;20457;-73
2021/07/21 06:22:52;;;;;;;21.40;19.63;;;23.30;99.60;;;;;;5110807;28;20445;-73
2021/07/21 06:25:19;;;;;;;21.07;19.67;;;23.70;99.20;;;;;;5110865;28;20441;-73
2021/07/21 06:27:45;;;;;;;22.07;20.47;;;23.80;98.70;;;;;;5110902;28;20456;-72
2021/07/21 06:30:13;;;;;;;22.07;20.47;;;24.20;97.60;;;;;;5111005;28;20449;-73
2021/07/21 06:32:41;;;;;;;21.70;20.00;;;24.50;97.50;;;;;;5110732;28;20445;-72
2021/07/21 06:35:10;;;;;;;22.77;21.10;;;24.80;96.50;;;;;;5110190;28;21000;-73
2021/07/21 06:37:37;;;;;;;22.73;21.10;;;25.30;95.50;;;;;;5110560;28;20454;-72
2021/07/21 06:40:05;;;;;;;23.77;22.27;;;25.20;95.10;;;;;;5110503;28;20449;-73
2021/07/21 06:42:32;;;;;;;22.50;20.70;;;25.40;95.10;;;;;;5110488;28;20453;-73
2021/07/21 06:44:58;;;;;;;22.17;20.40;;;25.60;94.50;;;;;;5110474;28;20449;-73
2021/07/21 06:47:25;;;;;;;22.80;21.20;;;25.60;94.40;;;;;;5110620;28;21003;-73
2021/07/21 06:49:52;;;;;;;22.40;20.70;;;25.70;94.00;;;;;;5110706;28;20445;-73
2021/07/21 06:52:22;;;;;;;22.73;21.30;;;25.50;95.10;;;;;;5110791;28;20449;-72
2021/07/21 06:54:49;;;;;;;23.70;21.70;;;26.30;93.70;;;;;;5114361;28;20563;-73
2021/07/21 06:57:16;;;;;;;21.57;20.27;;;26.50;92.70;;;;;;5114533;28;20449;-74
2021/07/21 06:59:43;;;;;;;21.33;20.07;;;26.60;92.40;;;;;;5114361;28;20449;-73
2021/07/21 07:02:09;;;;;;;21.10;19.70;;;26.90;92.00;;;;;;5114490;28;20478;-73
2021/07/21 07:04:36;;;;;;;23.77;21.83;;;27.10;91.30;;;;;;5114362;28;20456;-73
2021/07/21 07:07:03;;;;;;;22.20;20.80;;;27.40;90.70;;;;;;5114310;28;20445;-73
2021/07/21 07:09:31;;;;;;;21.87;20.47;;;27.50;90.40;;;;;;5114320;28;20462;-72
2021/07/21 07:11:58;;;;;;;22.10;20.77;;;27.60;90.10;;;;;;5114062;28;20498;-73
2021/07/21 07:14:25;;;;;;;23.20;21.63;;;27.70;89.70;;;;;;5113956;28;20586;-73
2021/07/21 07:16:51;;;;;;;23.50;21.57;;;28.30;89.60;;;;;;5114047;28;20485;-74
2021/07/21 07:19:18;;;;;;;23.07;21.57;;;29.10;86.00;;;;;;5114135;28;20449;-73
2021/07/21 07:21:45;;;;;;;23.00;21.27;;;28.90;85.60;;;;;;5113898;28;20944;-72
2021/07/21 07:24:12;;;;;;;23.77;22.17;;;28.60;85.80;;;;;;5113849;28;20510;-73
2021/07/21 07:26:40;;;;;;;22.60;20.90;;;28.80;87.10;;;;;;5113971;28;20564;-73
2021/07/21 07:29:06;;;;;;;21.70;20.00;;;29.50;84.10;;;;;;5113797;28;20449;-73
2021/07/21 07:31:34;;;;;;;21.20;19.90;;;29.30;82.80;;;;;;5113854;28;20501;-72
2021/07/21 07:34:00;;;;;;;23.10;21.53;;;29.10;83.30;;;;;;5113716;28;20505;-73
2021/07/21 07:36:28;;;;;;;23.67;22.17;;;29.20;82.70;;;;;;5113648;28;20530;-73
2021/07/21 07:38:54;;;;;;;22.20;20.70;;;29.60;81.90;;;;;;5113714;28;20445;-73
2021/07/21 07:41:21;;;;;;;21.60;20.17;;;29.70;82.00;;;;;;5113651;28;20921;-72
2021/07/21 07:43:50;;;;;;;23.07;21.20;;;29.60;81.20;;;;;;5113388;28;20454;-73
2021/07/21 07:46:17;;;;;;;22.23;20.63;;;30.00;80.10;;;;;;5113498;28;20442;-73
2021/07/21 07:48:44;;;;;;;22.00;20.53;;;29.60;80.30;;;;;;5113410;28;20492;-73
2021/07/21 07:51:10;;;;;;;23.30;21.90;;;29.60;80.10;;;;;;5113499;28;20445;-73
2021/07/21 07:53:37;;;;;;;23.00;21.50;;;29.80;79.40;;;;;;5113287;28;20453;-73
2021/07/21 07:56:04;;;;;;;21.43;20.03;;;30.20;79.50;;;;;;5113193;28;20515;-72
2021/07/21 07:58:31;;;;;;;21.67;20.27;;;29.90;78.50;;;;;;5112958;28;20476;-72
2021/07/21 08:00:59;;;;;;;23.13;21.53;;;29.70;79.40;;;;;;5113335;28;20456;-72
2021/07/21 08:03:26;;;;;;;22.50;21.03;;;29.50;79.70;;;;;;5113114;28;20449;-73
2021/07/21 08:05:56;;;;;;;22.00;20.60;;;29.00;79.80;;;;;;5112020;28;20960;-73
2021/07/21 08:08:23;;;;;;;22.93;21.47;;;28.60;82.70;;;;;;5112924;28;20464;-73
2021/07/21 08:10:50;;;;;;;23.40;21.90;;;29.30;81.30;;;;;;5112757;28;20456;-72
2021/07/21 08:13:19;;;;;;;24.17;22.67;;;29.90;78.70;;;;;;5112747;28;20465;-73
2021/07/21 08:15:46;;;;;;;24.10;22.40;;;29.70;79.40;;;;;;5112827;28;20500;-72
2021/07/21 08:18:14;;;;;;;23.60;22.10;;;29.00;80.00;;;;;;5112910;28;20453;-73
2021/07/21 08:20:42;;;;;;;23.17;21.73;;;28.70;81.80;;;;;;5112894;28;20453;-73
2021/07/21 08:23:08;;;;;;;24.20;22.80;;;28.70;82.50;;;;;;5112911;27;20510;-73
2021/07/21 08:25:35;;;;;;;23.37;21.87;;;29.30;80.30;;;;;;5112685;28;20458;-73
2021/07/21 08:28:03;;;;;;;23.03;21.60;;;29.40;81.00;;;;;;5112644;28;20450;-73
2021/07/21 08:30:30;;;;;;;24.13;22.33;;;29.20;80.60;;;;;;5112973;28;20850;-73
2021/07/21 08:32:58;;;;;;;24.00;22.17;;;29.60;80.30;;;;;;5112517;28;20536;-73
2021/07/21 08:35:29;;;;;;;24.90;23.20;;;30.10;79.10;;;;;;5112681;28;20535;-73
2021/07/21 08:37:56;;;;;;;23.70;22.37;;;31.00;76.50;;;;;;5112631;28;20605;-73
2021/07/21 08:40:24;;;;;;;22.90;21.43;;;31.00;74.60;;;;;;5112563;28;20460;-73
2021/07/21 08:42:52;;;;;;;23.20;21.80;;;31.70;73.30;;;;;;5112324;28;20449;-73
2021/07/21 08:45:19;;;;;;;21.43;20.23;;;31.70;72.50;;;;;;5112409;28;20445;-73
2021/07/21 08:47:46;;;;;;;23.07;21.77;;;31.50;71.90;;;;;;5112094;28;20473;-73
2021/07/21 08:50:14;;;;;;;22.90;21.47;;;32.40;71.60;;;;;;5112309;28;20445;-73
2021/07/21 08:52:42;;;;;;;23.50;22.00;;;32.30;70.60;;;;;;5112083;28;20446;-73
2021/07/21 08:55:11;;;;;;;24.30;22.70;;;31.70;71.60;;;;;;5112135;28;20494;-73
2021/07/21 08:57:39;;;;;;;22.70;21.50;;;31.60;72.50;;;;;;5111910;28;20450;-73
2021/07/21 09:00:08;;;;;;;21.83;20.53;;;31.50;71.20;;;;;;5112039;28;20460;-73
2021/07/21 09:02:36;;;;;;;22.47;21.17;;;31.70;71.50;;;;;;5111904;28;20441;-74
2021/07/21 09:05:04;;;;;;;21.77;20.47;;;32.10;70.10;;;;;;5111653;28;20557;-73
2021/07/21 09:07:31;;;;;;;22.63;21.30;;;31.70;69.60;;;;;;5111693;28;20446;-73
2021/07/21 09:09:59;;;;;;;22.27;20.80;;;31.90;70.90;;;;;;5111801;28;20449;-74
2021/07/21 09:12:26;;;;;;;22.57;21.23;;;31.70;71.20;;;;;;5111518;28;20468;-73
2021/07/21 09:14:53;;;;;;;22.97;21.57;;;31.40;70.50;;;;;;5111745;28;20445;-73
2021/07/21 09:17:22;;;;;;;22.13;20.77;;;31.50;70.70;;;;;;5110534;28;20481;-73
2021/07/21 09:19:50;;;;;;;22.00;20.40;;;31.60;68.80;;;;;;5111477;28;21253;-73
2021/07/21 09:22:19;;;;;;;23.03;21.63;;;31.30;69.60;;;;;;5111322;28;20474;-73
2021/07/21 09:24:46;;;;;;;22.53;21.33;;;30.80;70.10;;;;;;5111418;28;20449;-73
2021/07/21 09:27:14;;;;;;;22.37;20.80;;;31.20;70.70;;;;;;5111324;28;20446;-74
2021/07/21 09:29:42;;;;;;;22.60;21.10;;;32.10;68.60;;;;;;5111360;28;20916;-73
2021/07/21 09:32:09;;;;;;;23.07;21.47;;;31.70;67.30;;;;;;5111652;28;20594;-74
2021/07/21 09:34:36;;;;;;;23.50;22.20;;;31.30;69.00;;;;;;5111524;28;20452;-73
2021/07/21 09:37:05;;;;;;;24.07;22.40;;;31.50;69.00;;;;;;5111339;28;20508;-74
2021/07/21 09:39:34;;;;;;;21.83;20.53;;;32.00;66.70;;;;;;5111537;28;20457;-73
2021/07/21 09:42:01;;;;;;;23.13;21.83;;;32.30;63.80;;;;;;5111461;28;20449;-73
2021/07/21 09:44:34;;;;;;;22.23;20.90;;;32.60;63.40;;;;;;5111347;28;20437;-73
2021/07/21 09:47:16;;;;;;;25.80;24.00;;;32.10;64.60;;;;;;5111188;28;20445;-73
2021/07/21 09:49:44;;;;;;;24.73;23.17;;;31.90;66.10;;;;;;5111476;28;20452;-73
2021/07/21 09:52:20;;;;;;;22.67;21.47;;;32.20;64.20;;;;;;5111243;28;20507;-73
2021/07/21 09:55:08;;;;;;;22.93;21.63;;;32.00;64.10;;;;;;5111191;28;20518;-74
2021/07/21 09:57:36;;;;;;;23.73;22.43;;;32.40;62.20;;;;;;5111046;28;20480;-73
2021/07/21 10:00:20;;;;;;;22.90;21.70;;;33.50;60.70;;;;;;5111297;28;20449;-73
2021/07/21 10:02:47;;;;;;;24.37;22.80;;;33.80;60.70;;;;;;5111067;28;20452;-74
2021/07/21 10:05:14;;;;;;;23.47;22.17;;;33.80;59.00;;;;;;5110891;28;20441;-74
2021/07/21 10:07:51;;;;;;;23.40;22.00;;;33.50;59.50;;;;;;5111117;28;20520;-73
2021/07/21 10:10:19;;;;;;;22.60;21.40;;;33.40;59.00;;;;;;5111240;28;20452;-73
2021/07/21 10:12:58;;;;;;;25.13;23.57;;;33.60;59.60;;;;;;5110899;28;20464;-73
2021/07/21 10:15:27;;;;;;;23.23;22.03;;;34.30;58.70;;;;;;5111017;28;20484;-74
2021/07/21 10:18:12;;;;;;;21.97;20.47;;;33.00;58.90;;;;;;5110775;28;20456;-73
2021/07/21 10:20:40;;;;;;;23.77;22.37;;;33.20;59.00;;;;;;5110916;28;20441;-73
2021/07/21 10:23:08;;;;;;;23.43;22.07;;;33.30;59.00;;;;;;5110825;28;20453;-74
2021/07/21 10:25:36;;;;;;;23.63;21.97;;;33.70;58.60;;;;;;5110842;28;20502;-73
2021/07/21 10:28:03;;;;;;;24.60;23.10;;;33.10;58.30;;;;;;5112138;28;20450;-73
2021/07/21 10:30:33;;;;;;;23.50;22.10;;;33.10;58.70;;;;;;5114995;28;20453;-74
2021/07/21 10:33:00;;;;;;;23.80;22.23;;;33.90;57.00;;;;;;5115025;28;20457;-73
2021/07/21 10:35:29;;;;;;;23.90;22.23;;;35.00;55.30;;;;;;5114961;28;20452;-74
2021/07/21 10:37:57;;;;;;;23.70;22.17;;;34.80;55.40;;;;;;5114722;28;20898;-74
2021/07/21 10:40:26;;;;;;;23.37;21.93;;;34.80;55.90;;;;;;5114742;28;20456;-74
2021/07/21 10:42:54;;;;;;;24.17;22.67;;;35.20;54.50;;;;;;5114742;28;20457;-74
2021/07/21 10:45:23;;;;;;;22.30;21.10;;;35.60;54.60;;;;;;5114586;28;20937;-74
2021/07/21 10:47:54;;;;;;;24.03;22.60;;;35.70;53.90;;;;;;5114467;28;21299;-74
2021/07/21 10:50:29;;;;;;;23.47;22.23;;;36.00;53.40;;;;;;5114558;28;20457;-74
2021/07/21 10:53:53;;;;;;;23.83;22.53;;;35.80;52.30;;;;;;5114667;28;20505;-74
2021/07/21 10:59:21;;;;;;;24.93;23.37;;;35.40;53.20;;;;;;5114715;28;20421;-74
2021/07/21 11:01:49;;;;;;;24.97;23.57;;;35.50;53.00;;;;;;5114503;28;20460;-74
2021/07/21 11:04:19;;;;;;;23.80;22.40;;;35.40;54.00;;;;;;5114422;28;20449;-74
2021/07/21 11:06:47;;;;;;;23.87;22.47;;;35.50;52.70;;;;;;5114222;28;20442;-74
2021/07/21 11:09:23;;;;;;;23.67;22.47;;;35.30;52.30;;;;;;5114294;28;20437;-74
2021/07/21 11:11:54;;;;;;;23.63;22.37;;;35.70;52.10;;;;;;5114198;28;21184;-73
2021/07/21 11:14:23;;;;;;;23.83;22.53;;;36.00;51.90;;;;;;5114055;28;20469;-74
2021/07/21 11:16:51;;;;;;;24.43;22.80;;;35.80;50.90;;;;;;5114038;28;20487;-74
2021/07/21 11:19:39;;;;;;;22.40;21.20;;;34.90;52.70;;;;;;5114099;28;20445;-73
2021/07/21 11:22:09;;;;;;;25.00;23.50;;;35.40;51.70;;;;;;5114106;28;20941;-73
2021/07/21 11:25:09;;;;;;;21.97;20.67;;;35.40;51.20;;;;;;5113882;28;20453;-73
2021/07/21 11:27:44;;;;;;;23.17;21.70;;;35.50;52.00;;;;;;5113931;28;20452;-73
2021/07/21 11:30:41;;;;;;;23.67;22.30;;;35.10;52.90;;;;;;5114120;28;20452;-74
2021/07/21 11:33:42;;;;;;;24.10;22.50;;;35.70;51.20;;;;;;5113901;28;20972;-73
2021/07/21 11:36:11;;;;;;;24.00;22.60;;;35.80;51.70;;;;;;5095661;28;20898;-73
2021/07/21 11:38:49;;;;;;;24.30;23.00;;;36.10;50.50;;;;;;5113560;28;20478;-73
2021/07/21 11:41:49;;;;;;;24.03;22.63;;;36.50;49.50;;;;;;5113363;28;20457;-73
2021/07/21 11:44:23;;;;;;;25.67;24.13;;;35.60;50.80;;;;;;5113632;28;20446;-73
2021/07/21 11:46:50;;;;;;;24.07;22.60;;;34.70;51.70;;;;;;5113684;28;20438;-73
2021/07/21 11:49:20;;;;;;;23.87;22.40;;;34.30;52.40;;;;;;5113478;28;20564;-73
2021/07/21 11:51:51;;;;;;;26.30;23.23;;;33.90;54.30;;;;;;5113577;28;20449;-72
2021/07/21 11:54:27;;;;;;;23.47;21.67;;;33.00;54.50;;;;;;5113492;28;20461;-72
2021/07/21 11:56:54;;;;;;;23.33;21.87;;;32.20;55.70;;;;;;5113395;28;20542;-72
2021/07/21 11:59:29;;;;;;;23.97;22.67;;;32.80;55.40;;;;;;5113336;28;20453;-73
2021/07/21 12:02:04;;;;;;;23.93;22.53;;;33.20;55.00;;;;;;5113209;28;20440;-73
2021/07/21 12:04:32;;;;;;;22.73;21.40;;;33.90;53.70;;;;;;5113200;28;20455;-73
2021/07/21 12:07:00;;;;;;;26.07;24.40;;;34.30;53.20;;;;;;5113221;28;20438;-73
2021/07/21 12:09:28;;;;;;;25.20;23.70;;;34.00;54.30;;;;;;5113082;28;20537;-73
2021/07/21 12:11:55;;;;;;;27.27;25.60;;;34.40;53.40;;;;;;5113078;28;20477;-73
2021/07/21 12:14:24;;;;;;;26.77;24.93;;;34.50;52.30;;;;;;5113094;28;20548;-73
2021/07/21 12:16:52;;;;;;;26.10;24.30;;;34.50;52.30;;;;;;5112943;28;20576;-73
2021/07/21 12:19:25;;;;;;;24.57;23.13;;;34.70;52.30;;;;;;5112881;28;20536;-73
2021/07/21 12:22:01;;;;;;;24.97;23.33;;;35.10;51.90;;;;;;5113014;28;20488;-74
2021/07/21 12:24:36;;;;;;;26.20;24.70;;;34.90;52.90;;;;;;5112836;28;20944;-73
2021/07/21 12:27:04;;;;;;;24.33;22.93;;;35.60;51.00;;;;;;5112841;28;20441;-74
2021/07/21 12:29:31;;;;;;;24.90;23.57;;;34.30;53.40;;;;;;5112796;28;20449;-73
2021/07/21 12:32:09;;;;;;;23.87;22.53;;;34.20;53.60;;;;;;5112814;28;20528;-74
2021/07/21 12:34:36;;;;;;;25.13;23.73;;;35.10;52.60;;;;;;5112544;28;20438;-74
2021/07/21 12:37:07;;;;;;;27.57;25.77;;;35.80;52.40;;;;;;5112472;28;20485;-73
2021/07/21 12:39:35;;;;;;;25.40;23.80;;;35.60;51.70;;;;;;5112805;28;20864;-73
2021/07/21 12:42:11;;;;;;;24.87;23.40;;;34.50;52.90;;;;;;5112583;28;20445;-73
2021/07/21 12:44:40;;;;;;;25.77;24.27;;;34.40;54.00;;;;;;5112674;28;20502;-73